Cedar Lake, Indiana
Current Conditions -  °F | °C
As of 4:55 PM on Saturday 25 Oct 2014 (Local Time) from KIGQ Reporting Station
Clear Clear  
Wind Chill: 70°   Ceiling: Unl
Heat Index: 70°   Visibility: 10mi
Dew Point: 31°   Wind: 15mph
Humidity: 23%   Direction: 280°W
Pressure: 29.91"   Gusts: 24mph
Location:  41.37°N, 87.42°W
Report Text: KIGQ 252155Z AUTO 28013G21KT 10SM CLR 21/M01 A2991 RMK AO2 T02131008
Loading
Personal Weather Stations






























Interactive Weather Map
Tropical Storm Tracking
New forecast layout! Learn more

10-Day Weather Forecast

Advertisements
Track Severe Weather on mobile